Time;durP1;ratioP1;P1;durP2;ratioP2;P2;SDS_P1;SDS_P2;PMS_P1;PMS_P2;Temp;Humidity;BMP_temperature;BMP_pressure;BME280_temperature;BME280_humidity;BME280_pressure;Samples;Min_cycle;Max_cycle;Signal;HPM_P1;HPM_P2
2023/01/22 00:00:08;;;;;;;1.88;0.98;;;17.20;1.00;;;;;;4973438;28;20509;-42
2023/01/22 00:02:40;;;;;;;1.92;0.80;;;17.10;1.00;;;;;;4973413;28;20454;-40
2023/01/22 00:05:08;;;;;;;1.10;0.90;;;17.10;1.00;;;;;;4973646;28;20062;-39
2023/01/22 00:07:37;;;;;;;1.13;0.63;;;17.10;1.00;;;;;;4972171;28;20060;-39
2023/01/22 00:10:04;;;;;;;1.25;0.65;;;17.00;1.00;;;;;;4973366;28;20041;-39
2023/01/22 00:12:31;;;;;;;0.98;0.63;;;17.00;1.00;;;;;;4973162;28;20457;-39
2023/01/22 00:14:58;;;;;;;1.10;0.73;;;17.00;1.00;;;;;;4973304;28;20047;-39
2023/01/22 00:17:25;;;;;;;2.35;0.70;;;16.90;1.00;;;;;;4973268;28;20047;-39
2023/01/22 00:19:52;;;;;;;2.28;0.73;;;16.90;1.00;;;;;;4973321;28;20050;-39
2023/01/22 00:22:19;;;;;;;2.05;0.80;;;16.90;1.00;;;;;;4973014;28;20055;-39
2023/01/22 00:24:45;;;;;;;2.53;1.55;;;16.80;1.00;;;;;;4973206;28;20043;-39
2023/01/22 00:27:12;;;;;;;1.88;0.63;;;16.80;1.00;;;;;;4973156;28;20188;-39
2023/01/22 00:29:39;;;;;;;2.65;1.25;;;16.80;1.00;;;;;;4973209;28;20490;-39
2023/01/22 00:32:06;;;;;;;1.45;0.70;;;16.70;1.00;;;;;;4973052;28;20042;-39
2023/01/22 00:34:33;;;;;;;2.38;0.93;;;16.70;1.00;;;;;;4972952;28;20042;-39
2023/01/22 00:37:00;;;;;;;3.15;0.88;;;16.70;1.00;;;;;;4971814;28;20054;-39
2023/01/22 00:39:27;;;;;;;0.95;0.50;;;16.60;1.00;;;;;;4971740;28;20530;-39
2023/01/22 00:41:53;;;;;;;1.25;0.60;;;16.60;1.00;;;;;;4971705;28;20081;-39
2023/01/22 00:44:20;;;;;;;1.20;0.90;;;16.60;1.00;;;;;;4971595;28;20050;-40
2023/01/22 00:46:47;;;;;;;1.42;0.90;;;16.60;1.00;;;;;;4972923;28;20051;-39
2023/01/22 00:49:14;;;;;;;1.33;0.63;;;16.50;1.00;;;;;;4973068;28;20042;-39
2023/01/22 00:51:43;;;;;;;1.38;0.93;;;16.50;1.00;;;;;;4971485;28;20506;-39
2023/01/22 00:54:11;;;;;;;1.70;0.57;;;16.50;1.00;;;;;;4972711;28;20050;-39
2023/01/22 00:56:38;;;;;;;1.40;0.70;;;16.40;1.00;;;;;;4973034;28;20126;-40
2023/01/22 00:59:09;;;;;;;1.83;0.85;;;16.40;1.00;;;;;;4973218;28;20411;-39
2023/01/22 01:01:37;;;;;;;0.98;0.63;;;16.40;1.00;;;;;;4974246;28;20050;-40
2023/01/22 01:04:04;;;;;;;1.30;0.73;;;16.40;1.00;;;;;;4975302;28;20046;-40
2023/01/22 01:06:31;;;;;;;1.33;0.70;;;16.30;1.00;;;;;;4975451;28;20401;-39
2023/01/22 01:08:58;;;;;;;0.93;0.70;;;16.30;1.00;;;;;;4975436;28;20051;-39
2023/01/22 01:11:25;;;;;;;1.40;0.60;;;16.20;1.00;;;;;;4976590;28;20126;-38
2023/01/22 01:13:52;;;;;;;0.80;0.60;;;16.20;1.00;;;;;;4975087;28;20045;-39
2023/01/22 01:16:23;;;;;;;2.22;1.15;;;16.20;1.00;;;;;;4975276;28;20062;-39
2023/01/22 01:18:50;;;;;;;1.05;0.47;;;16.20;1.00;;;;;;4976559;28;20101;-39
2023/01/22 01:21:18;;;;;;;1.50;0.80;;;16.20;1.00;;;;;;4974996;28;20517;-39
2023/01/22 01:23:45;;;;;;;2.47;0.60;;;16.10;1.00;;;;;;4974914;28;20093;-39
2023/01/22 01:26:14;;;;;;;1.35;0.60;;;16.10;1.00;;;;;;4976315;28;20077;-40
2023/01/22 01:28:42;;;;;;;1.17;0.70;;;16.10;1.00;;;;;;4976369;28;20039;-39
2023/01/22 01:31:12;;;;;;;1.33;0.77;;;16.00;1.00;;;;;;4976327;28;20043;-39
2023/01/22 01:33:40;;;;;;;1.15;0.63;;;16.00;1.00;;;;;;4974599;28;20718;-39
2023/01/22 01:36:14;;;;;;;1.42;0.73;;;16.00;1.00;;;;;;4976125;28;20081;-39
2023/01/22 01:38:41;;;;;;;3.97;0.70;;;16.00;1.00;;;;;;4974955;28;20047;-40
2023/01/22 01:41:12;;;;;;;1.75;0.98;;;15.90;1.00;;;;;;4975348;28;20085;-39
2023/01/22 01:43:39;;;;;;;1.35;0.85;;;15.90;1.00;;;;;;4971865;28;20105;-40
2023/01/22 01:46:19;;;;;;;1.40;0.85;;;15.90;1.00;;;;;;4974651;28;20054;-39
2023/01/22 01:48:49;;;;;;;1.17;0.60;;;15.90;1.00;;;;;;4974657;28;20050;-40
2023/01/22 01:51:19;;;;;;;1.00;0.60;;;15.80;1.00;;;;;;4975833;28;20047;-39
2023/01/22 01:53:49;;;;;;;1.67;0.60;;;15.80;1.00;;;;;;4975428;28;20035;-39
2023/01/22 01:56:23;;;;;;;1.05;0.52;;;15.80;1.00;;;;;;4974577;28;20143;-39
2023/01/22 01:58:57;;;;;;;1.02;0.60;;;15.80;1.00;;;;;;4974626;28;20051;-39
2023/01/22 02:01:26;;;;;;;1.88;0.65;;;15.70;1.00;;;;;;4975648;28;20046;-39
2023/01/22 02:03:54;;;;;;;1.05;0.70;;;15.70;1.00;;;;;;4975270;28;20045;-38
2023/01/22 02:06:21;;;;;;;1.08;0.68;;;15.70;1.00;;;;;;4974001;28;20043;-38
2023/01/22 02:08:50;;;;;;;2.00;0.60;;;15.70;1.00;;;;;;4974534;28;20047;-38
2023/01/22 02:11:18;;;;;;;1.10;0.50;;;15.60;1.00;;;;;;4973776;28;20047;-38
2023/01/22 02:13:53;;;;;;;1.67;0.73;;;15.60;1.00;;;;;;4975458;28;20089;-39
2023/01/22 02:16:20;;;;;;;1.52;0.70;;;15.60;1.00;;;;;;4975590;28;20348;-39
2023/01/22 02:18:47;;;;;;;1.67;0.80;;;15.60;1.00;;;;;;4975246;28;20097;-39
2023/01/22 02:21:37;;;;;;;2.38;0.60;;;15.50;1.00;;;;;;4973907;28;20499;-39
2023/01/22 02:24:07;;;;;;;0.98;0.38;;;15.50;1.00;;;;;;4975141;28;20081;-39
2023/01/22 02:26:35;;;;;;;1.13;0.50;;;15.50;1.00;;;;;;4973979;28;20042;-39
2023/01/22 02:29:03;;;;;;;1.10;0.63;;;15.50;1.00;;;;;;4975234;28;20513;-39
2023/01/22 02:31:30;;;;;;;1.00;0.47;;;15.40;1.00;;;;;;4975162;28;20098;-39
2023/01/22 02:33:58;;;;;;;1.70;0.70;;;15.40;1.00;;;;;;4973639;28;20097;-39
2023/01/22 02:36:28;;;;;;;0.85;0.50;;;15.40;1.00;;;;;;4973893;28;20134;-39
2023/01/22 02:38:55;;;;;;;1.27;0.50;;;15.40;1.00;;;;;;4973806;28;20529;-39
2023/01/22 02:41:22;;;;;;;1.88;0.70;;;15.30;1.00;;;;;;4973702;28;20545;-38
2023/01/22 02:43:49;;;;;;;2.20;0.57;;;15.30;1.00;;;;;;4974659;28;20188;-39
2023/01/22 02:46:19;;;;;;;1.20;0.60;;;15.30;1.00;;;;;;4973743;28;20530;-39
2023/01/22 02:48:46;;;;;;;1.17;0.60;;;15.30;1.00;;;;;;4973639;28;20043;-40
2023/01/22 02:51:14;;;;;;;1.63;0.52;;;15.30;1.00;;;;;;4973530;28;20043;-39
2023/01/22 02:53:43;;;;;;;0.68;0.40;;;15.20;1.00;;;;;;4973300;28;20138;-40
2023/01/22 02:56:10;;;;;;;0.75;0.45;;;15.20;1.00;;;;;;4973515;28;20043;-40
2023/01/22 02:58:38;;;;;;;2.17;0.60;;;15.20;1.00;;;;;;4973539;28;20145;-40
2023/01/22 03:01:22;;;;;;;1.10;0.50;;;15.20;1.00;;;;;;4973345;28;20142;-40
2023/01/22 03:04:00;;;;;;;1.55;0.70;;;15.20;1.00;;;;;;4973147;28;20059;-40
2023/01/22 03:06:28;;;;;;;1.38;0.75;;;15.20;1.00;;;;;;4973313;28;20523;-40
2023/01/22 03:08:59;;;;;;;1.00;0.50;;;15.20;1.00;;;;;;4973253;28;20170;-40
2023/01/22 03:11:30;;;;;;;3.20;1.00;;;15.10;1.00;;;;;;4973208;28;20053;-40
2023/01/22 03:22:22;;;;;;;0.85;0.50;;;15.10;1.00;;;;;;4972514;28;20050;-39
2023/01/22 03:24:51;;;;;;;0.95;0.40;;;15.00;1.00;;;;;;4972266;28;20043;-40
2023/01/22 03:27:23;;;;;;;1.27;0.60;;;15.10;1.00;;;;;;4973016;28;20047;-40
2023/01/22 03:29:50;;;;;;;2.05;0.68;;;15.10;1.00;;;;;;4972768;28;20106;-39
2023/01/22 03:32:18;;;;;;;0.70;0.28;;;15.20;1.00;;;;;;4972557;28;20041;-39
2023/01/22 03:34:45;;;;;;;0.82;0.40;;;15.30;1.00;;;;;;4973899;28;20042;-39
2023/01/22 03:37:13;;;;;;;0.93;0.50;;;15.30;1.00;;;;;;4972737;28;20046;-39
2023/01/22 03:39:42;;;;;;;1.30;0.63;;;15.50;1.00;;;;;;4972927;28;20060;-40
2023/01/22 03:42:16;;;;;;;1.10;0.50;;;15.60;1.00;;;;;;4972363;28;20050;-40
2023/01/22 03:44:43;;;;;;;0.70;0.43;;;15.60;1.00;;;;;;4972604;28;20050;-40
2023/01/22 03:47:11;;;;;;;0.85;0.50;;;15.80;1.00;;;;;;4972535;28;20043;-40
2023/01/22 03:49:37;;;;;;;2.58;0.50;;;15.80;1.00;;;;;;4972637;28;20130;-40
2023/01/22 03:52:05;;;;;;;0.70;0.30;;;15.90;1.00;;;;;;4972366;28;20074;-40
2023/01/22 03:54:31;;;;;;;0.88;0.30;;;16.00;1.00;;;;;;4956280;28;20049;-40
2023/01/22 03:57:01;;;;;;;1.33;0.47;;;16.10;1.00;;;;;;4972309;28;20070;-40
2023/01/22 03:59:31;;;;;;;0.65;0.38;;;16.10;1.00;;;;;;4972639;28;20055;-40
2023/01/22 04:01:58;;;;;;;0.88;0.40;;;16.20;1.00;;;;;;4972231;28;20047;-40
2023/01/22 04:04:25;;;;;;;0.88;0.40;;;16.20;1.00;;;;;;4972196;28;20491;-40
2023/01/22 04:06:52;;;;;;;1.55;0.52;;;16.20;1.00;;;;;;4972075;28;20055;-40
2023/01/22 04:09:19;;;;;;;1.05;0.52;;;16.30;1.00;;;;;;4972264;28;20450;-40
2023/01/22 04:11:47;;;;;;;1.20;0.43;;;16.30;1.00;;;;;;4972204;28;20454;-39
2023/01/22 04:14:16;;;;;;;0.80;0.40;;;16.30;1.00;;;;;;4971832;28;20047;-39
2023/01/22 04:16:52;;;;;;;0.88;0.40;;;16.30;1.00;;;;;;4972169;28;20043;-40
2023/01/22 04:19:39;;;;;;;0.90;0.50;;;16.30;1.00;;;;;;4972155;28;20138;-39
2023/01/22 04:22:44;;;;;;;1.27;0.60;;;16.30;1.00;;;;;;4967879;28;20039;-40
2023/01/22 04:25:12;;;;;;;1.05;0.40;;;16.30;1.00;;;;;;4972065;28;20076;-40
2023/01/22 04:27:38;;;;;;;0.82;0.50;;;16.30;1.00;;;;;;4973178;28;20097;-40
2023/01/22 04:30:06;;;;;;;0.70;0.30;;;16.30;1.00;;;;;;4971888;28;20042;-40
2023/01/22 04:32:34;;;;;;;1.40;0.50;;;16.20;1.00;;;;;;4971950;28;20039;-39
2023/01/22 04:35:16;;;;;;;0.30;0.10;;;16.20;1.00;;;;;;4971758;28;20129;-40
2023/01/22 04:37:53;;;;;;;0.75;0.40;;;16.20;1.00;;;;;;4971920;28;20071;-40
2023/01/22 04:40:20;;;;;;;1.92;0.40;;;16.20;1.00;;;;;;4971763;28;20085;-39
2023/01/22 04:42:48;;;;;;;0.73;0.22;;;16.20;1.00;;;;;;4971564;28;20101;-40
2023/01/22 04:45:15;;;;;;;0.60;0.40;;;16.10;1.00;;;;;;4971756;28;20110;-40
2023/01/22 04:47:44;;;;;;;0.80;0.40;;;16.10;1.00;;;;;;4971723;28;20061;-40
2023/01/22 04:50:25;;;;;;;0.98;0.30;;;16.10;1.00;;;;;;4971842;28;20053;-40
2023/01/22 04:52:54;;;;;;;0.55;0.30;;;16.00;1.00;;;;;;4971467;28;20097;-39
2023/01/22 04:55:22;;;;;;;0.73;0.30;;;16.00;1.00;;;;;;4971662;28;20047;-39
2023/01/22 04:57:57;;;;;;;0.57;0.20;;;16.00;1.00;;;;;;4971840;28;20050;-39
2023/01/22 05:00:26;;;;;;;1.08;0.38;;;16.00;1.00;;;;;;4972888;28;20073;-40
2023/01/22 05:03:01;;;;;;;0.80;0.40;;;15.90;1.00;;;;;;4971417;28;20137;-40
2023/01/22 05:05:30;;;;;;;0.30;0.10;;;15.90;1.00;;;;;;4971488;28;20162;-40
2023/01/22 05:07:57;;;;;;;0.60;0.40;;;15.90;1.00;;;;;;4972769;28;20074;-40
2023/01/22 05:10:24;;;;;;;0.40;0.10;;;15.80;1.00;;;;;;4971729;28;20055;-40
2023/01/22 05:12:52;;;;;;;2.35;0.65;;;15.80;1.00;;;;;;4971305;28;20551;-40
2023/01/22 05:15:19;;;;;;;1.17;0.30;;;15.80;1.00;;;;;;4971320;28;20071;-39
2023/01/22 05:17:54;;;;;;;2.45;0.43;;;15.80;1.00;;;;;;4971488;28;20395;-40
2023/01/22 05:20:21;;;;;;;0.55;0.22;;;15.70;1.00;;;;;;4971440;28;20057;-39
2023/01/22 05:22:48;;;;;;;1.40;0.25;;;15.70;1.00;;;;;;4972489;28;20046;-39
2023/01/22 05:25:18;;;;;;;0.55;0.30;;;15.70;1.00;;;;;;4971627;28;20047;-40
2023/01/22 05:27:46;;;;;;;1.40;0.40;;;15.60;1.00;;;;;;4971409;28;20151;-46
2023/01/22 05:30:19;;;;;;;1.58;0.32;;;15.60;1.00;;;;;;4971240;28;20121;-40
2023/01/22 05:33:10;;;;;;;0.88;0.30;;;15.60;1.00;;;;;;4971379;28;20485;-39
2023/01/22 05:35:38;;;;;;;0.98;0.30;;;15.60;1.00;;;;;;4971339;28;20507;-40
2023/01/22 05:38:05;;;;;;;0.30;0.10;;;15.50;1.00;;;;;;4971514;28;20074;-40
2023/01/22 05:40:32;;;;;;;0.50;0.30;;;15.50;1.00;;;;;;4971210;28;20043;-40
2023/01/22 05:43:02;;;;;;;0.73;0.35;;;15.50;1.00;;;;;;4970910;28;20230;-40
2023/01/22 05:45:29;;;;;;;0.75;0.35;;;15.40;1.00;;;;;;4971299;28;20109;-40
2023/01/22 05:48:19;;;;;;;0.90;0.35;;;15.40;1.00;;;;;;4975573;28;20050;-40
2023/01/22 05:50:55;;;;;;;0.80;0.30;;;15.40;1.00;;;;;;4974716;28;20057;-39
2023/01/22 05:53:22;;;;;;;2.85;0.70;;;15.30;1.00;;;;;;4974313;28;20043;-40
2023/01/22 05:55:49;;;;;;;1.88;0.35;;;15.30;1.00;;;;;;4974754;28;20125;-39
2023/01/22 05:58:15;;;;;;;0.82;0.50;;;15.30;1.00;;;;;;4974732;28;20050;-40
2023/01/22 06:00:46;;;;;;;0.73;0.25;;;15.30;1.00;;;;;;4975731;28;20070;-40
2023/01/22 06:03:14;;;;;;;0.43;0.20;;;15.30;1.00;;;;;;4974300;28;20073;-39
2023/01/22 06:05:46;;;;;;;1.33;0.50;;;15.40;1.00;;;;;;4974379;28;20070;-40
2023/01/22 06:08:14;;;;;;;0.80;0.38;;;15.40;1.00;;;;;;4974377;28;20429;-40
2023/01/22 06:10:48;;;;;;;0.70;0.28;;;15.50;1.00;;;;;;4974351;28;20051;-40
2023/01/22 06:13:15;;;;;;;1.35;0.38;;;15.60;1.00;;;;;;4974056;28;20043;-39
2023/01/22 06:15:44;;;;;;;0.80;0.32;;;15.60;1.00;;;;;;4974361;28;20071;-40
2023/01/22 06:18:30;;;;;;;1.48;0.30;;;15.70;1.00;;;;;;4975471;28;20043;-40
2023/01/22 06:21:01;;;;;;;2.38;0.35;;;15.80;1.00;;;;;;4986251;23;20051;-40
2023/01/22 06:23:29;;;;;;;0.35;0.13;;;15.90;1.00;;;;;;5006238;28;20042;-40
2023/01/22 06:25:58;;;;;;;1.30;0.40;;;15.90;1.00;;;;;;5012856;28;20085;-40
2023/01/22 06:28:26;;;;;;;0.43;0.15;;;16.00;1.00;;;;;;5012890;28;20429;-40
2023/01/22 06:31:04;;;;;;;1.60;0.40;;;16.00;1.00;;;;;;5012811;28;20042;-40
2023/01/22 06:33:33;;;;;;;1.20;0.30;;;16.10;1.00;;;;;;5007252;28;20054;-40
2023/01/22 06:36:00;;;;;;;2.25;0.40;;;16.10;1.00;;;;;;5014091;28;20501;-40
2023/01/22 06:38:28;;;;;;;1.05;0.35;;;16.10;1.00;;;;;;5012871;28;20046;-40
2023/01/22 06:40:59;;;;;;;1.00;0.17;;;16.10;1.00;;;;;;5012704;28;20052;-40
2023/01/22 06:43:27;;;;;;;2.20;0.32;;;16.20;1.00;;;;;;5012582;28;20416;-40
2023/01/22 06:45:55;;;;;;;0.85;0.30;;;16.20;1.00;;;;;;5012819;28;20512;-40
2023/01/22 06:48:42;;;;;;;4.13;0.30;;;16.20;1.00;;;;;;5012520;28;20258;-40
2023/01/22 06:51:10;;;;;;;0.50;0.30;;;16.20;1.00;;;;;;5012369;28;20046;-40
2023/01/22 06:53:37;;;;;;;0.57;0.25;;;16.10;1.00;;;;;;5012357;28;20042;-40
2023/01/22 06:56:04;;;;;;;1.23;0.40;;;16.10;1.00;;;;;;5012552;28;20042;-40
2023/01/22 06:58:31;;;;;;;0.50;0.20;;;16.10;1.00;;;;;;5012315;28;20049;-40
2023/01/22 07:01:03;;;;;;;0.80;0.20;;;16.10;1.00;;;;;;5013561;28;20552;-40
2023/01/22 07:03:29;;;;;;;0.65;0.32;;;16.10;1.00;;;;;;5013572;28;20453;-40
2023/01/22 07:05:58;;;;;;;0.60;0.35;;;16.10;1.00;;;;;;5013540;28;20049;-40
2023/01/22 07:08:26;;;;;;;1.55;0.28;;;16.00;1.00;;;;;;5013546;28;20042;-40
2023/01/22 07:10:53;;;;;;;0.50;0.20;;;16.00;1.00;;;;;;5013447;28;20401;-40
2023/01/22 07:13:20;;;;;;;0.88;0.40;;;16.00;1.00;;;;;;5013347;28;20129;-40
2023/01/22 07:15:47;;;;;;;0.45;0.30;;;15.90;1.00;;;;;;5013352;28;20624;-40
2023/01/22 07:18:15;;;;;;;0.70;0.20;;;15.90;1.00;;;;;;5013406;28;20050;-40
2023/01/22 07:20:42;;;;;;;1.60;0.35;;;15.90;1.00;;;;;;5013233;28;20524;-40
2023/01/22 07:23:09;;;;;;;1.00;0.25;;;15.90;1.00;;;;;;5012955;28;20042;-40
2023/01/22 07:25:36;;;;;;;2.42;0.77;;;15.80;1.00;;;;;;5013093;28;20045;-40
2023/01/22 07:28:04;;;;;;;1.60;0.38;;;15.80;1.00;;;;;;5013105;28;20501;-40
2023/01/22 07:30:31;;;;;;;1.58;0.20;;;15.80;1.00;;;;;;5013060;28;20045;-40
2023/01/22 07:33:00;;;;;;;1.05;0.25;;;15.80;1.00;;;;;;5012826;28;20084;-40
2023/01/22 07:35:28;;;;;;;0.77;0.50;;;15.70;1.00;;;;;;5013129;28;20450;-40
2023/01/22 07:37:57;;;;;;;0.90;0.43;;;15.70;1.00;;;;;;5013127;28;20044;-40
2023/01/22 07:40:25;;;;;;;0.50;0.20;;;15.70;1.00;;;;;;5012820;28;20038;-39
2023/01/22 07:42:52;;;;;;;1.13;0.30;;;15.70;1.00;;;;;;5012432;28;20104;-40
2023/01/22 07:45:20;;;;;;;0.70;0.38;;;15.60;1.00;;;;;;5012843;28;20494;-40
2023/01/22 07:47:59;;;;;;;0.90;0.20;;;15.60;1.00;;;;;;5012813;28;20571;-39
2023/01/22 07:50:28;;;;;;;1.58;0.32;;;15.60;1.00;;;;;;5012372;28;20046;-40
2023/01/22 07:52:55;;;;;;;0.57;0.22;;;15.60;1.00;;;;;;5007995;28;20041;-40
2023/01/22 07:55:22;;;;;;;0.30;0.10;;;15.50;1.00;;;;;;5006387;28;20463;-39
2023/01/22 07:58:04;;;;;;;2.38;0.30;;;15.50;1.00;;;;;;5007594;28;20053;-40
2023/01/22 08:00:36;;;;;;;0.77;0.30;;;15.50;1.00;;;;;;5007272;28;20052;-40
2023/01/22 08:03:04;;;;;;;0.65;0.30;;;15.50;1.00;;;;;;5007391;28;20042;-40
2023/01/22 08:05:31;;;;;;;1.70;0.40;;;15.50;1.00;;;;;;5011032;28;20551;-40
2023/01/22 08:07:58;;;;;;;0.60;0.20;;;15.60;1.00;;;;;;5012406;28;20117;-40
2023/01/22 08:10:25;;;;;;;0.57;0.28;;;15.60;1.00;;;;;;5012056;28;20045;-40
2023/01/22 08:12:52;;;;;;;1.30;0.40;;;15.70;1.00;;;;;;5009450;28;20025;-41
2023/01/22 08:15:18;;;;;;;0.82;0.40;;;15.70;1.00;;;;;;5011984;28;20066;-40
2023/01/22 08:17:49;;;;;;;2.35;0.43;;;15.80;1.00;;;;;;5012246;28;20046;-40
2023/01/22 08:20:16;;;;;;;1.30;0.93;;;15.90;1.00;;;;;;5011879;28;20046;-40
2023/01/22 08:22:44;;;;;;;1.77;0.93;;;16.00;1.00;;;;;;5011368;28;20042;-40
2023/01/22 08:25:11;;;;;;;3.25;1.23;;;15.90;1.00;;;;;;5012130;28;20057;-46
2023/01/22 08:27:38;;;;;;;2.65;1.33;;;16.00;1.00;;;;;;5012266;28;20428;-39
2023/01/22 08:30:06;;;;;;;6.22;1.00;;;15.80;1.00;;;;;;5011985;28;20125;-40
2023/01/22 08:32:33;;;;;;;1.38;0.77;;;15.70;1.00;;;;;;5011990;28;20046;-40
2023/01/22 08:35:00;;;;;;;2.22;1.00;;;15.70;1.00;;;;;;5011941;28;20041;-40
2023/01/22 08:37:27;;;;;;;2.65;1.02;;;15.80;1.00;;;;;;5013328;28;20046;-40
2023/01/22 08:39:54;;;;;;;1.58;0.77;;;15.80;1.00;;;;;;5019597;28;20037;-40
2023/01/22 08:42:20;;;;;;;2.15;0.47;;;15.90;1.00;;;;;;5014425;28;20076;-40
2023/01/22 08:44:52;;;;;;;1.65;0.98;;;16.00;1.00;;;;;;5012689;28;20353;-40
2023/01/22 08:47:23;;;;;;;2.25;0.50;;;16.00;1.00;;;;;;5016428;28;20048;-40
2023/01/22 08:49:53;;;;;;;2.70;0.80;;;16.10;1.00;;;;;;5011884;28;20042;-40
2023/01/22 08:52:20;;;;;;;3.53;0.47;;;16.20;1.00;;;;;;5011789;28;20121;-41
2023/01/22 08:54:47;;;;;;;1.77;0.57;;;16.20;1.00;;;;;;5019538;28;20052;-40
2023/01/22 08:57:15;;;;;;;1.02;0.38;;;16.30;1.00;;;;;;5011820;28;20038;-41
2023/01/22 08:59:51;;;;;;;4.32;0.60;;;16.40;1.00;;;;;;5012006;28;20041;-40
2023/01/22 09:02:30;;;;;;;1.10;0.60;;;16.50;1.00;;;;;;5011744;28;20046;-40
2023/01/22 09:05:05;;;;;;;3.10;0.95;;;16.50;1.00;;;;;;5011621;28;20130;-40
2023/01/22 09:07:35;;;;;;;5.28;0.75;;;16.60;1.00;;;;;;5011537;28;20116;-40
2023/01/22 09:10:12;;;;;;;1.20;0.52;;;16.60;1.00;;;;;;5011629;28;20045;-40
2023/01/22 09:12:39;;;;;;;1.85;1.10;;;16.60;1.00;;;;;;5019249;28;20073;-40
2023/01/22 09:15:07;;;;;;;1.48;0.50;;;16.70;1.00;;;;;;5011524;28;20038;-40
2023/01/22 09:17:40;;;;;;;3.25;0.40;;;16.70;1.00;;;;;;5011856;28;20049;-40
2023/01/22 09:20:07;;;;;;;1.00;0.65;;;16.70;1.00;;;;;;5011582;28;20042;-40
2023/01/22 09:22:34;;;;;;;3.85;0.70;;;16.70;1.00;;;;;;5014061;28;20055;-40
2023/01/22 09:25:01;;;;;;;2.88;0.95;;;16.70;1.00;;;;;;5012812;28;20050;-40
2023/01/22 09:27:28;;;;;;;2.60;0.40;;;16.70;1.00;;;;;;5012914;28;20074;-40
2023/01/22 09:29:55;;;;;;;1.02;0.60;;;16.70;1.00;;;;;;5015154;28;20038;-41
2023/01/22 09:32:21;;;;;;;6.32;0.70;;;16.70;1.00;;;;;;5014978;28;20092;-40
2023/01/22 09:34:48;;;;;;;0.70;0.32;;;16.70;1.00;;;;;;5009757;28;20649;-40
2023/01/22 09:37:15;;;;;;;3.20;0.50;;;16.60;1.00;;;;;;5015242;28;20521;-40
2023/01/22 09:39:42;;;;;;;1.25;0.38;;;16.60;1.00;;;;;;5014810;28;20042;-40
2023/01/22 09:42:16;;;;;;;1.48;0.65;;;16.60;1.00;;;;;;5014870;28;20045;-40
2023/01/22 09:44:47;;;;;;;3.85;0.60;;;16.60;1.00;;;;;;5017255;28;20077;-40
2023/01/22 09:47:25;;;;;;;3.45;0.43;;;16.60;1.00;;;;;;5017784;28;20045;-40
2023/01/22 09:50:16;;;;;;;3.58;0.32;;;16.50;1.00;;;;;;5014507;28;20069;-40
2023/01/22 09:52:45;;;;;;;5.57;0.75;;;16.50;1.00;;;;;;5016569;28;20069;-40
2023/01/22 09:55:13;;;;;;;2.08;0.70;;;16.50;1.00;;;;;;5034589;28;20042;-40
2023/01/22 09:57:46;;;;;;;4.70;0.82;;;16.40;1.00;;;;;;5034503;28;20068;-40
2023/01/22 10:00:21;;;;;;;3.33;0.90;;;16.40;1.00;;;;;;5034544;28;20143;-40
2023/01/22 10:02:57;;;;;;;3.30;0.65;;;16.30;1.00;;;;;;5022459;28;20452;-40
2023/01/22 10:05:38;;;;;;;1.75;1.08;;;16.30;1.00;;;;;;5014542;28;20579;-40
2023/01/22 10:08:18;;;;;;;1.95;0.60;;;16.30;1.00;;;;;;5014469;28;20478;-40
2023/01/22 10:10:45;;;;;;;5.85;0.80;;;16.20;1.00;;;;;;5014574;28;20452;-40
2023/01/22 10:13:16;;;;;;;4.18;0.65;;;16.20;1.00;;;;;;5014428;28;20037;-40
2023/01/22 10:15:44;;;;;;;1.77;0.63;;;16.20;1.00;;;;;;5014460;28;20448;-40
2023/01/22 10:18:30;;;;;;;1.20;0.60;;;16.10;1.00;;;;;;5014702;28;20172;-40
2023/01/22 10:21:01;;;;;;;2.33;0.60;;;16.10;1.00;;;;;;5013922;28;20117;-41
2023/01/22 10:23:31;;;;;;;1.23;0.57;;;16.00;1.00;;;;;;5013484;28;20038;-40
2023/01/22 10:26:13;;;;;;;3.08;0.52;;;16.00;1.00;;;;;;5014366;28;20096;-40
2023/01/22 10:28:46;;;;;;;2.55;0.57;;;15.90;1.00;;;;;;5012333;28;20088;-40
2023/01/22 10:31:27;;;;;;;2.60;0.60;;;15.90;1.00;;;;;;5010704;28;20445;-40
2023/01/22 10:33:59;;;;;;;5.50;0.75;;;15.90;1.00;;;;;;5013152;28;20050;-40
2023/01/22 10:36:27;;;;;;;2.38;0.73;;;15.80;1.00;;;;;;5014054;28;20049;-40
2023/01/22 10:39:11;;;;;;;3.63;0.52;;;15.80;1.00;;;;;;5013859;28;20053;-40
2023/01/22 10:41:40;;;;;;;2.85;0.50;;;15.80;1.00;;;;;;5014017;28;20042;-40
2023/01/22 10:44:21;;;;;;;1.52;0.55;;;15.70;1.00;;;;;;5013514;28;20050;-40
2023/01/22 10:46:49;;;;;;;2.00;0.40;;;15.70;1.00;;;;;;5013882;28;20045;-40
2023/01/22 10:49:22;;;;;;;1.67;0.70;;;15.70;1.00;;;;;;5013423;28;20113;-40
2023/01/22 10:51:51;;;;;;;3.05;0.50;;;15.70;1.00;;;;;;5013670;28;20069;-40
2023/01/22 10:54:26;;;;;;;1.13;0.55;;;15.60;1.00;;;;;;5013441;28;20045;-40
2023/01/22 10:57:18;;;;;;;2.50;0.60;;;15.60;1.00;;;;;;5012532;28;20049;-40
2023/01/22 11:00:11;;;;;;;3.20;0.77;;;15.60;1.00;;;;;;5003421;28;20053;-40
2023/01/22 11:02:43;;;;;;;3.15;0.98;;;15.60;1.00;;;;;;5009021;28;20458;-40
2023/01/22 11:05:22;;;;;;;1.70;0.83;;;15.70;1.00;;;;;;5013588;28;20050;-40
2023/01/22 11:07:57;;;;;;;2.58;0.57;;;15.70;1.00;;;;;;5013616;28;20070;-40
2023/01/22 11:10:56;;;;;;;1.40;0.35;;;15.80;1.00;;;;;;5013455;28;20085;-40
2023/01/22 11:13:26;;;;;;;1.30;0.50;;;15.80;1.00;;;;;;5013217;28;20034;-40
2023/01/22 11:16:05;;;;;;;3.72;0.32;;;15.90;1.00;;;;;;5013252;28;20042;-40
2023/01/22 11:18:37;;;;;;;0.98;0.28;;;15.90;1.00;;;;;;5013586;28;20062;-40
2023/01/22 11:21:34;;;;;;;2.35;0.40;;;16.00;1.00;;;;;;5013107;28;20493;-40
2023/01/22 11:24:22;;;;;;;7.45;0.50;;;16.10;1.00;;;;;;4984659;28;20079;-40
2023/01/22 11:27:13;;;;;;;1.80;0.40;;;16.20;1.00;;;;;;5013305;28;20493;-40
2023/01/22 11:30:22;;;;;;;0.80;0.40;;;16.20;1.00;;;;;;5012048;28;20409;-40
2023/01/22 11:33:18;;;;;;;0.50;0.22;;;16.20;1.00;;;;;;5013088;28;20045;-40
2023/01/22 11:36:03;;;;;;;1.17;0.55;;;16.30;1.00;;;;;;5012983;28;20125;-40
2023/01/22 11:38:44;;;;;;;4.30;0.70;;;16.30;1.00;;;;;;5013037;28;20413;-40
2023/01/22 11:41:48;;;;;;;3.25;0.63;;;16.30;1.00;;;;;;5013257;28;20045;-41
2023/01/22 11:44:18;;;;;;;3.33;0.80;;;16.30;1.00;;;;;;5010779;28;20065;-40
2023/01/22 11:47:23;;;;;;;1.10;0.50;;;16.30;1.00;;;;;;5012820;28;20128;-40
2023/01/22 11:50:13;;;;;;;0.75;0.20;;;16.30;1.00;;;;;;5012606;28;20478;-40
2023/01/22 11:53:11;;;;;;;1.08;0.35;;;16.30;1.00;;;;;;5012441;28;20046;-40
2023/01/22 11:55:55;;;;;;;7.18;0.55;;;16.30;1.00;;;;;;5012658;28;20048;-41
2023/01/22 11:58:44;;;;;;;3.50;0.40;;;16.30;1.00;;;;;;5012642;28;20065;-40
2023/01/22 12:01:44;;;;;;;2.70;0.55;;;16.20;1.00;;;;;;5012785;28;20521;-40
2023/01/22 12:04:52;;;;;;;1.00;0.50;;;16.20;1.00;;;;;;5012334;28;20560;-41
2023/01/22 12:07:26;;;;;;;2.22;0.68;;;16.20;1.00;;;;;;5009746;28;20066;-40
2023/01/22 12:10:39;;;;;;;3.50;0.50;;;16.20;1.00;;;;;;5012362;28;20620;-40
2023/01/22 12:13:34;;;;;;;1.20;0.45;;;16.20;1.00;;;;;;4968502;28;20112;-40
2023/01/22 12:16:28;;;;;;;2.20;0.57;;;16.10;1.00;;;;;;5012297;28;20077;-41
2023/01/22 12:19:21;;;;;;;1.58;0.55;;;16.10;1.00;;;;;;5012393;28;20096;-40
2023/01/22 12:22:06;;;;;;;;;;;16.10;1.00;;;;;;5012603;28;20053;-40
2023/01/22 12:24:42;;;;;;;3.65;0.50;;;16.10;1.00;;;;;;5011920;28;19956;-40
2023/01/22 12:27:21;;;;;;;2.20;0.73;;;16.10;1.00;;;;;;5012357;28;20042;-41
2023/01/22 12:29:59;;;;;;;1.50;0.65;;;16.10;1.00;;;;;;5012107;28;20048;-41
2023/01/22 12:32:29;;;;;;;1.95;1.00;;;16.10;1.00;;;;;;5012005;28;20512;-41
2023/01/22 12:35:06;;;;;;;6.45;0.80;;;16.00;1.00;;;;;;5011999;28;20050;-41
2023/01/22 12:37:59;;;;;;;2.25;0.73;;;16.00;1.00;;;;;;5008588;28;20038;-40
2023/01/22 12:41:02;;;;;;;4.95;0.90;;;16.00;1.00;;;;;;5010475;28;20042;-40
2023/01/22 12:43:51;;;;;;;0.82;0.50;;;15.90;1.00;;;;;;5006132;28;20061;-41
2023/01/22 12:46:41;;;;;;;2.10;0.60;;;15.90;1.00;;;;;;5011678;28;20049;-40
2023/01/22 12:49:10;;;;;;;2.65;0.50;;;15.80;1.00;;;;;;5010776;28;20501;-40
2023/01/22 12:51:43;;;;;;;7.43;1.10;;;15.80;1.00;;;;;;5011874;28;20084;-41
2023/01/22 12:54:25;;;;;;;5.05;0.57;;;15.80;1.00;;;;;;5011041;28;20041;-40
2023/01/22 12:56:56;;;;;;;1.73;0.45;;;15.70;1.00;;;;;;5014924;28;20046;-40
2023/01/22 12:59:29;;;;;;;3.13;0.82;;;15.70;1.00;;;;;;5015903;28;20046;-40
2023/01/22 13:02:23;;;;;;;3.45;0.90;;;15.70;1.00;;;;;;5015925;28;20433;-40
2023/01/22 13:04:54;;;;;;;2.60;0.40;;;15.60;1.00;;;;;;5011597;28;20620;-40
2023/01/22 13:07:31;;;;;;;1.55;0.70;;;15.60;1.00;;;;;;5015932;28;20141;-40
2023/01/22 13:10:30;;;;;;;1.10;0.45;;;15.60;1.00;;;;;;5015764;28;20378;-40
2023/01/22 13:13:22;;;;;;;2.60;0.40;;;15.60;1.00;;;;;;5015508;28;20464;-42
2023/01/22 13:15:53;;;;;;;1.08;0.50;;;15.50;1.00;;;;;;5012825;28;20052;-40
2023/01/22 13:18:26;;;;;;;1.65;0.70;;;15.50;1.00;;;;;;5015666;28;20466;-40
2023/01/22 13:21:08;;;;;;;1.80;0.73;;;15.50;1.00;;;;;;5015290;28;20074;-41
2023/01/22 13:23:44;;;;;;;2.22;0.40;;;15.40;1.00;;;;;;5015160;28;20050;-40
2023/01/22 13:26:23;;;;;;;1.67;0.50;;;15.40;1.00;;;;;;5015541;28;20053;-40
2023/01/22 13:28:57;;;;;;;4.82;1.38;;;15.40;1.00;;;;;;5015443;28;20050;-40
2023/01/22 13:31:24;;;;;;;1.65;0.55;;;15.40;1.00;;;;;;5015219;28;20046;-39
2023/01/22 13:34:07;;;;;;;3.90;0.50;;;15.30;1.00;;;;;;5014036;28;20092;-40